sensor_id;sensor_type;location;lat;lon;timestamp;P1;durP1;ratioP1;P2;durP2;ratioP2
6955;SDS011;50345;51.136;16.886;2023-04-24T00:02:03;15.63;;;14.23;;
6955;SDS011;50345;51.136;16.886;2023-04-24T00:04:29;17.03;;;15.23;;
6955;SDS011;50345;51.136;16.886;2023-04-24T00:06:56;18.45;;;16.30;;
6955;SDS011;50345;51.136;16.886;2023-04-24T00:09:24;17.33;;;15.63;;
6955;SDS011;50345;51.136;16.886;2023-04-24T00:11:51;17.75;;;15.88;;
6955;SDS011;50345;51.136;16.886;2023-04-24T00:14:16;20.67;;;17.97;;
6955;SDS011;50345;51.136;16.886;2023-04-24T00:16:42;19.53;;;17.53;;
6955;SDS011;50345;51.136;16.886;2023-04-24T00:19:08;20.20;;;18.27;;
6955;SDS011;50345;51.136;16.886;2023-04-24T00:21:34;17.77;;;15.97;;
6955;SDS011;50345;51.136;16.886;2023-04-24T00:24:00;20.10;;;18.07;;
6955;SDS011;50345;51.136;16.886;2023-04-24T00:26:25;19.30;;;17.40;;
6955;SDS011;50345;51.136;16.886;2023-04-24T00:28:51;17.33;;;15.60;;
6955;SDS011;50345;51.136;16.886;2023-04-24T00:31:16;19.70;;;17.70;;
6955;SDS011;50345;51.136;16.886;2023-04-24T00:33:42;20.17;;;17.20;;
6955;SDS011;50345;51.136;16.886;2023-04-24T00:36:07;18.80;;;17.00;;
6955;SDS011;50345;51.136;16.886;2023-04-24T00:38:33;17.70;;;16.00;;
6955;SDS011;50345;51.136;16.886;2023-04-24T00:40:58;17.33;;;15.57;;
6955;SDS011;50345;51.136;16.886;2023-04-24T00:43:24;17.67;;;15.80;;
6955;SDS011;50345;51.136;16.886;2023-04-24T00:45:50;16.57;;;14.97;;
6955;SDS011;50345;51.136;16.886;2023-04-24T00:48:16;16.70;;;15.03;;
6955;SDS011;50345;51.136;16.886;2023-04-24T00:50:41;15.83;;;14.37;;
6955;SDS011;50345;51.136;16.886;2023-04-24T00:53:07;16.77;;;13.70;;
6955;SDS011;50345;51.136;16.886;2023-04-24T00:55:33;15.47;;;14.07;;
6955;SDS011;50345;51.136;16.886;2023-04-24T00:57:58;16.37;;;14.77;;
6955;SDS011;50345;51.136;16.886;2023-04-24T01:00:24;15.98;;;14.10;;
6955;SDS011;50345;51.136;16.886;2023-04-24T01:02:50;15.90;;;13.70;;
6955;SDS011;50345;51.136;16.886;2023-04-24T01:05:17;16.48;;;14.85;;
6955;SDS011;50345;51.136;16.886;2023-04-24T01:07:44;14.45;;;12.75;;
6955;SDS011;50345;51.136;16.886;2023-04-24T01:10:13;14.93;;;13.63;;
6955;SDS011;50345;51.136;16.886;2023-04-24T01:12:39;16.67;;;15.07;;
6955;SDS011;50345;51.136;16.886;2023-04-24T01:15:05;17.50;;;15.80;;
6955;SDS011;50345;51.136;16.886;2023-04-24T01:17:31;18.60;;;16.80;;
6955;SDS011;50345;51.136;16.886;2023-04-24T01:19:57;15.93;;;14.50;;
6955;SDS011;50345;51.136;16.886;2023-04-24T01:22:24;15.93;;;14.52;;
6955;SDS011;50345;51.136;16.886;2023-04-24T01:24:51;15.10;;;13.80;;
6955;SDS011;50345;51.136;16.886;2023-04-24T01:27:17;17.13;;;15.57;;
6955;SDS011;50345;51.136;16.886;2023-04-24T01:29:42;15.07;;;13.57;;
6955;SDS011;50345;51.136;16.886;2023-04-24T01:32:08;14.40;;;13.10;;
6955;SDS011;50345;51.136;16.886;2023-04-24T01:34:34;15.90;;;14.37;;
6955;SDS011;50345;51.136;16.886;2023-04-24T01:37:00;15.00;;;13.77;;
6955;SDS011;50345;51.136;16.886;2023-04-24T01:39:25;15.20;;;13.80;;
6955;SDS011;50345;51.136;16.886;2023-04-24T01:41:53;15.38;;;13.80;;
6955;SDS011;50345;51.136;16.886;2023-04-24T01:44:20;15.80;;;14.40;;
6955;SDS011;50345;51.136;16.886;2023-04-24T01:46:46;14.65;;;13.15;;
6955;SDS011;50345;51.136;16.886;2023-04-24T01:49:11;15.00;;;13.53;;
6955;SDS011;50345;51.136;16.886;2023-04-24T01:51:37;16.77;;;14.88;;
6955;SDS011;50345;51.136;16.886;2023-04-24T01:54:03;16.13;;;14.67;;
6955;SDS011;50345;51.136;16.886;2023-04-24T01:56:30;15.05;;;13.75;;
6955;SDS011;50345;51.136;16.886;2023-04-24T01:58:58;19.60;;;13.57;;
6955;SDS011;50345;51.136;16.886;2023-04-24T02:01:25;15.05;;;13.75;;
6955;SDS011;50345;51.136;16.886;2023-04-24T02:03:51;14.70;;;13.27;;
6955;SDS011;50345;51.136;16.886;2023-04-24T02:06:16;15.90;;;14.30;;
6955;SDS011;50345;51.136;16.886;2023-04-24T02:08:42;14.97;;;13.67;;
6955;SDS011;50345;51.136;16.886;2023-04-24T02:11:10;15.63;;;14.23;;
6955;SDS011;50345;51.136;16.886;2023-04-24T02:13:36;16.58;;;14.23;;
6955;SDS011;50345;51.136;16.886;2023-04-24T02:16:02;14.03;;;12.80;;
6955;SDS011;50345;51.136;16.886;2023-04-24T02:18:27;14.60;;;13.40;;
6955;SDS011;50345;51.136;16.886;2023-04-24T02:20:53;14.30;;;12.90;;
6955;SDS011;50345;51.136;16.886;2023-04-24T02:23:18;14.27;;;12.97;;
6955;SDS011;50345;51.136;16.886;2023-04-24T02:25:44;13.93;;;12.70;;
6955;SDS011;50345;51.136;16.886;2023-04-24T02:28:10;14.05;;;12.80;;
6955;SDS011;50345;51.136;16.886;2023-04-24T02:30:36;15.70;;;13.37;;
6955;SDS011;50345;51.136;16.886;2023-04-24T02:33:01;14.70;;;13.33;;
6955;SDS011;50345;51.136;16.886;2023-04-24T02:35:28;15.63;;;14.10;;
6955;SDS011;50345;51.136;16.886;2023-04-24T02:37:53;15.50;;;14.03;;
6955;SDS011;50345;51.136;16.886;2023-04-24T02:40:19;14.17;;;12.90;;
6955;SDS011;50345;51.136;16.886;2023-04-24T02:42:45;15.37;;;13.77;;
6955;SDS011;50345;51.136;16.886;2023-04-24T02:45:11;18.83;;;13.50;;
6955;SDS011;50345;51.136;16.886;2023-04-24T02:47:36;14.40;;;13.10;;
6955;SDS011;50345;51.136;16.886;2023-04-24T02:50:02;15.93;;;14.23;;
6955;SDS011;50345;51.136;16.886;2023-04-24T02:52:28;14.63;;;13.23;;
6955;SDS011;50345;51.136;16.886;2023-04-24T02:54:54;14.63;;;13.33;;
6955;SDS011;50345;51.136;16.886;2023-04-24T02:57:19;13.87;;;12.47;;
6955;SDS011;50345;51.136;16.886;2023-04-24T02:59:45;13.03;;;11.77;;
6955;SDS011;50345;51.136;16.886;2023-04-24T03:02:10;14.43;;;12.93;;
6955;SDS011;50345;51.136;16.886;2023-04-24T03:04:36;14.63;;;13.10;;
6955;SDS011;50345;51.136;16.886;2023-04-24T03:07:01;13.10;;;11.90;;
6955;SDS011;50345;51.136;16.886;2023-04-24T03:09:27;12.60;;;11.30;;
6955;SDS011;50345;51.136;16.886;2023-04-24T03:11:52;12.77;;;11.73;;
6955;SDS011;50345;51.136;16.886;2023-04-24T03:14:18;11.70;;;10.60;;
6955;SDS011;50345;51.136;16.886;2023-04-24T03:16:44;12.33;;;11.23;;
6955;SDS011;50345;51.136;16.886;2023-04-24T03:19:09;12.80;;;11.60;;
6955;SDS011;50345;51.136;16.886;2023-04-24T03:21:35;13.10;;;11.57;;
6955;SDS011;50345;51.136;16.886;2023-04-24T03:24:05;11.20;;;10.32;;
6955;SDS011;50345;51.136;16.886;2023-04-24T03:26:31;12.18;;;11.07;;
6955;SDS011;50345;51.136;16.886;2023-04-24T03:28:57;12.33;;;11.33;;
6955;SDS011;50345;51.136;16.886;2023-04-24T03:31:22;11.93;;;10.93;;
6955;SDS011;50345;51.136;16.886;2023-04-24T03:33:48;13.23;;;11.90;;
6955;SDS011;50345;51.136;16.886;2023-04-24T03:36:14;16.53;;;11.77;;
6955;SDS011;50345;51.136;16.886;2023-04-24T03:38:40;13.23;;;11.57;;
6955;SDS011;50345;51.136;16.886;2023-04-24T03:41:05;12.10;;;10.90;;
6955;SDS011;50345;51.136;16.886;2023-04-24T03:43:31;11.57;;;10.57;;
6955;SDS011;50345;51.136;16.886;2023-04-24T03:45:58;12.77;;;11.57;;
6955;SDS011;50345;51.136;16.886;2023-04-24T03:48:23;13.50;;;12.17;;
6955;SDS011;50345;51.136;16.886;2023-04-24T03:50:49;14.47;;;13.07;;
6955;SDS011;50345;51.136;16.886;2023-04-24T03:53:15;13.13;;;12.03;;
6955;SDS011;50345;51.136;16.886;2023-04-24T03:55:40;14.90;;;13.10;;
6955;SDS011;50345;51.136;16.886;2023-04-24T03:58:06;14.03;;;12.57;;
6955;SDS011;50345;51.136;16.886;2023-04-24T04:00:32;13.50;;;12.30;;
6955;SDS011;50345;51.136;16.886;2023-04-24T04:02:58;14.57;;;12.90;;
6955;SDS011;50345;51.136;16.886;2023-04-24T04:05:23;13.90;;;12.53;;
6955;SDS011;50345;51.136;16.886;2023-04-24T04:07:49;13.80;;;12.00;;
6955;SDS011;50345;51.136;16.886;2023-04-24T04:10:14;12.70;;;11.60;;
6955;SDS011;50345;51.136;16.886;2023-04-24T04:12:42;13.68;;;12.27;;
6955;SDS011;50345;51.136;16.886;2023-04-24T04:15:07;14.23;;;12.83;;
6955;SDS011;50345;51.136;16.886;2023-04-24T04:17:33;13.17;;;12.07;;
6955;SDS011;50345;51.136;16.886;2023-04-24T04:19:59;13.40;;;12.20;;
6955;SDS011;50345;51.136;16.886;2023-04-24T04:22:25;14.20;;;12.90;;
6955;SDS011;50345;51.136;16.886;2023-04-24T04:24:50;13.00;;;11.80;;
6955;SDS011;50345;51.136;16.886;2023-04-24T04:27:16;13.13;;;12.03;;
6955;SDS011;50345;51.136;16.886;2023-04-24T04:29:43;13.05;;;11.82;;
6955;SDS011;50345;51.136;16.886;2023-04-24T04:32:09;12.52;;;11.25;;
6955;SDS011;50345;51.136;16.886;2023-04-24T04:34:35;12.47;;;11.37;;
6955;SDS011;50345;51.136;16.886;2023-04-24T04:37:02;15.00;;;12.38;;
6955;SDS011;50345;51.136;16.886;2023-04-24T04:39:28;14.00;;;12.60;;
6955;SDS011;50345;51.136;16.886;2023-04-24T04:41:55;16.40;;;13.98;;
6955;SDS011;50345;51.136;16.886;2023-04-24T04:44:21;13.57;;;12.40;;
6955;SDS011;50345;51.136;16.886;2023-04-24T04:46:46;13.30;;;11.73;;
6955;SDS011;50345;51.136;16.886;2023-04-24T04:49:12;14.90;;;13.03;;
6955;SDS011;50345;51.136;16.886;2023-04-24T04:51:41;15.05;;;13.55;;
6955;SDS011;50345;51.136;16.886;2023-04-24T04:54:07;20.87;;;12.53;;
6955;SDS011;50345;51.136;16.886;2023-04-24T04:56:32;14.37;;;12.97;;
6955;SDS011;50345;51.136;16.886;2023-04-24T04:58:58;13.03;;;11.93;;
6955;SDS011;50345;51.136;16.886;2023-04-24T05:01:24;12.80;;;11.60;;
6955;SDS011;50345;51.136;16.886;2023-04-24T05:03:52;12.55;;;11.45;;
6955;SDS011;50345;51.136;16.886;2023-04-24T05:06:18;15.27;;;12.70;;
6955;SDS011;50345;51.136;16.886;2023-04-24T05:08:43;12.93;;;11.80;;
6955;SDS011;50345;51.136;16.886;2023-04-24T05:11:09;12.30;;;11.00;;
6955;SDS011;50345;51.136;16.886;2023-04-24T05:13:35;14.40;;;11.00;;
6955;SDS011;50345;51.136;16.886;2023-04-24T05:16:00;11.77;;;10.57;;
6955;SDS011;50345;51.136;16.886;2023-04-24T05:18:26;13.80;;;12.50;;
6955;SDS011;50345;51.136;16.886;2023-04-24T05:20:51;13.03;;;11.87;;
6955;SDS011;50345;51.136;16.886;2023-04-24T05:23:17;12.40;;;11.40;;
6955;SDS011;50345;51.136;16.886;2023-04-24T05:25:42;12.47;;;11.30;;
6955;SDS011;50345;51.136;16.886;2023-04-24T05:28:08;13.00;;;11.63;;
6955;SDS011;50345;51.136;16.886;2023-04-24T05:30:33;16.67;;;11.33;;
6955;SDS011;50345;51.136;16.886;2023-04-24T05:32:59;13.00;;;11.73;;
6955;SDS011;50345;51.136;16.886;2023-04-24T05:35:24;10.30;;;9.37;;
6955;SDS011;50345;51.136;16.886;2023-04-24T05:37:50;11.97;;;10.17;;
6955;SDS011;50345;51.136;16.886;2023-04-24T05:40:16;11.20;;;10.10;;
6955;SDS011;50345;51.136;16.886;2023-04-24T05:42:41;11.23;;;10.03;;
6955;SDS011;50345;51.136;16.886;2023-04-24T05:45:07;11.27;;;10.17;;
6955;SDS011;50345;51.136;16.886;2023-04-24T05:47:34;10.68;;;9.70;;
6955;SDS011;50345;51.136;16.886;2023-04-24T05:50:00;10.27;;;9.27;;
6955;SDS011;50345;51.136;16.886;2023-04-24T05:52:25;10.57;;;8.47;;
6955;SDS011;50345;51.136;16.886;2023-04-24T05:54:51;10.50;;;9.50;;
6955;SDS011;50345;51.136;16.886;2023-04-24T05:57:16;12.43;;;10.70;;
6955;SDS011;50345;51.136;16.886;2023-04-24T05:59:42;9.97;;;9.07;;
6955;SDS011;50345;51.136;16.886;2023-04-24T06:02:07;11.30;;;8.60;;
6955;SDS011;50345;51.136;16.886;2023-04-24T06:04:33;11.83;;;10.67;;
6955;SDS011;50345;51.136;16.886;2023-04-24T06:06:59;9.90;;;7.80;;
6955;SDS011;50345;51.136;16.886;2023-04-24T06:09:25;9.57;;;8.45;;
6955;SDS011;50345;51.136;16.886;2023-04-24T06:11:50;9.43;;;7.97;;
6955;SDS011;50345;51.136;16.886;2023-04-24T06:14:18;9.73;;;8.77;;
6955;SDS011;50345;51.136;16.886;2023-04-24T06:16:44;9.30;;;8.40;;
6955;SDS011;50345;51.136;16.886;2023-04-24T06:19:09;10.40;;;8.57;;
6955;SDS011;50345;51.136;16.886;2023-04-24T06:21:35;8.33;;;7.57;;
6955;SDS011;50345;51.136;16.886;2023-04-24T06:24:00;9.10;;;8.30;;
6955;SDS011;50345;51.136;16.886;2023-04-24T06:26:26;9.80;;;8.90;;
6955;SDS011;50345;51.136;16.886;2023-04-24T06:28:52;10.95;;;9.40;;
6955;SDS011;50345;51.136;16.886;2023-04-24T06:31:21;8.95;;;8.15;;
6955;SDS011;50345;51.136;16.886;2023-04-24T06:33:47;9.23;;;8.43;;
6955;SDS011;50345;51.136;16.886;2023-04-24T06:36:14;8.55;;;7.85;;
6955;SDS011;50345;51.136;16.886;2023-04-24T06:38:40;11.05;;;9.95;;
6955;SDS011;50345;51.136;16.886;2023-04-24T06:41:06;9.10;;;8.20;;
6955;SDS011;50345;51.136;16.886;2023-04-24T06:43:32;10.97;;;9.23;;
6955;SDS011;50345;51.136;16.886;2023-04-24T06:45:57;9.17;;;7.87;;
6955;SDS011;50345;51.136;16.886;2023-04-24T06:48:24;10.02;;;8.77;;
6955;SDS011;50345;51.136;16.886;2023-04-24T06:50:50;9.55;;;8.57;;
6955;SDS011;50345;51.136;16.886;2023-04-24T06:53:16;8.43;;;6.97;;
6955;SDS011;50345;51.136;16.886;2023-04-24T06:55:42;8.37;;;7.60;;
6955;SDS011;50345;51.136;16.886;2023-04-24T06:58:09;8.43;;;7.70;;
6955;SDS011;50345;51.136;16.886;2023-04-24T07:00:35;8.75;;;7.95;;
6955;SDS011;50345;51.136;16.886;2023-04-24T07:03:01;8.73;;;8.03;;
6955;SDS011;50345;51.136;16.886;2023-04-24T07:05:27;8.07;;;7.38;;
6955;SDS011;50345;51.136;16.886;2023-04-24T07:07:53;8.00;;;7.20;;
6955;SDS011;50345;51.136;16.886;2023-04-24T07:10:18;6.87;;;6.17;;
6955;SDS011;50345;51.136;16.886;2023-04-24T07:12:45;8.90;;;6.57;;
6955;SDS011;50345;51.136;16.886;2023-04-24T07:15:11;9.70;;;7.80;;
6955;SDS011;50345;51.136;16.886;2023-04-24T07:17:37;7.00;;;6.30;;
6955;SDS011;50345;51.136;16.886;2023-04-24T07:20:03;8.43;;;6.55;;
6955;SDS011;50345;51.136;16.886;2023-04-24T07:22:30;7.53;;;6.93;;
6955;SDS011;50345;51.136;16.886;2023-04-24T07:24:56;7.37;;;6.77;;
6955;SDS011;50345;51.136;16.886;2023-04-24T07:27:21;6.27;;;5.77;;
6955;SDS011;50345;51.136;16.886;2023-04-24T07:29:47;7.07;;;6.37;;
6955;SDS011;50345;51.136;16.886;2023-04-24T07:32:13;6.17;;;5.67;;
6955;SDS011;50345;51.136;16.886;2023-04-24T07:34:38;8.23;;;6.30;;
6955;SDS011;50345;51.136;16.886;2023-04-24T07:37:04;4.73;;;4.30;;
6955;SDS011;50345;51.136;16.886;2023-04-24T07:39:30;4.83;;;4.43;;
6955;SDS011;50345;51.136;16.886;2023-04-24T07:41:56;8.57;;;4.00;;
6955;SDS011;50345;51.136;16.886;2023-04-24T07:44:21;5.03;;;3.97;;
6955;SDS011;50345;51.136;16.886;2023-04-24T07:46:47;7.47;;;3.80;;
6955;SDS011;50345;51.136;16.886;2023-04-24T07:49:12;3.40;;;3.20;;
6955;SDS011;50345;51.136;16.886;2023-04-24T07:51:39;2.97;;;2.77;;
6955;SDS011;50345;51.136;16.886;2023-04-24T07:54:05;3.67;;;3.40;;
6955;SDS011;50345;51.136;16.886;2023-04-24T07:56:32;3.15;;;2.95;;
6955;SDS011;50345;51.136;16.886;2023-04-24T07:58:58;3.50;;;3.30;;
6955;SDS011;50345;51.136;16.886;2023-04-24T08:01:24;3.90;;;3.60;;
6955;SDS011;50345;51.136;16.886;2023-04-24T08:03:50;5.10;;;3.10;;
6955;SDS011;50345;51.136;16.886;2023-04-24T08:06:16;4.20;;;3.80;;
6955;SDS011;50345;51.136;16.886;2023-04-24T08:08:41;3.97;;;3.53;;
6955;SDS011;50345;51.136;16.886;2023-04-24T08:11:07;3.57;;;3.27;;
6955;SDS011;50345;51.136;16.886;2023-04-24T08:13:33;3.90;;;3.60;;
6955;SDS011;50345;51.136;16.886;2023-04-24T08:15:58;5.67;;;4.93;;
6955;SDS011;50345;51.136;16.886;2023-04-24T08:18:24;3.80;;;3.60;;
6955;SDS011;50345;51.136;16.886;2023-04-24T08:20:50;4.40;;;4.03;;
6955;SDS011;50345;51.136;16.886;2023-04-24T08:23:15;3.63;;;3.33;;
6955;SDS011;50345;51.136;16.886;2023-04-24T08:25:41;4.17;;;3.87;;
6955;SDS011;50345;51.136;16.886;2023-04-24T08:28:08;4.07;;;3.50;;
6955;SDS011;50345;51.136;16.886;2023-04-24T08:30:34;4.45;;;3.35;;
6955;SDS011;50345;51.136;16.886;2023-04-24T08:33:00;4.30;;;3.87;;
6955;SDS011;50345;51.136;16.886;2023-04-24T08:35:25;6.17;;;3.90;;
6955;SDS011;50345;51.136;16.886;2023-04-24T08:37:52;4.50;;;4.10;;
6955;SDS011;50345;51.136;16.886;2023-04-24T08:40:18;3.65;;;3.33;;
6955;SDS011;50345;51.136;16.886;2023-04-24T08:42:51;4.35;;;3.95;;
6955;SDS011;50345;51.136;16.886;2023-04-24T08:45:20;4.28;;;3.90;;
6955;SDS011;50345;51.136;16.886;2023-04-24T08:47:46;5.63;;;5.00;;
6955;SDS011;50345;51.136;16.886;2023-04-24T08:50:14;5.05;;;3.35;;
6955;SDS011;50345;51.136;16.886;2023-04-24T08:52:41;4.55;;;4.15;;
6955;SDS011;50345;51.136;16.886;2023-04-24T08:55:07;4.50;;;4.20;;
6955;SDS011;50345;51.136;16.886;2023-04-24T08:57:33;4.47;;;3.50;;
6955;SDS011;50345;51.136;16.886;2023-04-24T09:00:01;5.18;;;4.70;;
6955;SDS011;50345;51.136;16.886;2023-04-24T09:02:27;5.40;;;5.00;;
6955;SDS011;50345;51.136;16.886;2023-04-24T09:04:53;4.93;;;4.53;;
6955;SDS011;50345;51.136;16.886;2023-04-24T09:07:22;5.35;;;4.85;;
6955;SDS011;50345;51.136;16.886;2023-04-24T09:09:50;4.35;;;4.05;;
6955;SDS011;50345;51.136;16.886;2023-04-24T09:12:17;4.65;;;4.25;;
6955;SDS011;50345;51.136;16.886;2023-04-24T09:14:44;5.60;;;4.93;;
6955;SDS011;50345;51.136;16.886;2023-04-24T09:17:10;5.32;;;4.93;;
6955;SDS011;50345;51.136;16.886;2023-04-24T09:19:36;5.85;;;5.28;;
6955;SDS011;50345;51.136;16.886;2023-04-24T09:22:06;6.07;;;5.57;;
6955;SDS011;50345;51.136;16.886;2023-04-24T09:24:33;5.30;;;4.80;;
6955;SDS011;50345;51.136;16.886;2023-04-24T09:26:59;5.65;;;5.25;;
6955;SDS011;50345;51.136;16.886;2023-04-24T09:29:29;4.77;;;4.37;;
6955;SDS011;50345;51.136;16.886;2023-04-24T09:31:54;8.70;;;5.83;;
6955;SDS011;50345;51.136;16.886;2023-04-24T09:34:24;4.60;;;3.67;;
6955;SDS011;50345;51.136;16.886;2023-04-24T09:36:51;4.43;;;4.00;;
6955;SDS011;50345;51.136;16.886;2023-04-24T09:39:17;3.97;;;3.63;;
6955;SDS011;50345;51.136;16.886;2023-04-24T09:41:51;7.30;;;5.20;;
6955;SDS011;50345;51.136;16.886;2023-04-24T09:44:26;4.90;;;4.23;;
6955;SDS011;50345;51.136;16.886;2023-04-24T09:46:56;5.53;;;5.03;;
6955;SDS011;50345;51.136;16.886;2023-04-24T09:49:26;5.27;;;3.57;;
6955;SDS011;50345;51.136;16.886;2023-04-24T09:52:05;4.40;;;4.10;;
6955;SDS011;50345;51.136;16.886;2023-04-24T09:54:35;5.53;;;4.70;;
6955;SDS011;50345;51.136;16.886;2023-04-24T09:57:01;5.33;;;4.93;;
6955;SDS011;50345;51.136;16.886;2023-04-24T09:59:27;5.83;;;5.20;;
6955;SDS011;50345;51.136;16.886;2023-04-24T10:01:53;4.90;;;4.50;;
6955;SDS011;50345;51.136;16.886;2023-04-24T10:06:45;5.17;;;4.80;;
6955;SDS011;50345;51.136;16.886;2023-04-24T10:09:13;5.30;;;4.80;;
6955;SDS011;50345;51.136;16.886;2023-04-24T10:11:44;5.97;;;5.47;;
6955;SDS011;50345;51.136;16.886;2023-04-24T10:14:15;5.57;;;5.17;;
6955;SDS011;50345;51.136;16.886;2023-04-24T10:16:42;6.73;;;5.13;;
6955;SDS011;50345;51.136;16.886;2023-04-24T10:19:08;5.97;;;5.00;;
6955;SDS011;50345;51.136;16.886;2023-04-24T10:21:35;5.43;;;5.00;;
6955;SDS011;50345;51.136;16.886;2023-04-24T10:24:07;4.95;;;4.55;;
6955;SDS011;50345;51.136;16.886;2023-04-24T10:26:33;5.17;;;4.77;;
6955;SDS011;50345;51.136;16.886;2023-04-24T10:28:59;4.85;;;4.45;;
6955;SDS011;50345;51.136;16.886;2023-04-24T10:31:26;4.85;;;4.45;;
6955;SDS011;50345;51.136;16.886;2023-04-24T10:33:55;6.10;;;5.60;;
6955;SDS011;50345;51.136;16.886;2023-04-24T10:36:23;5.32;;;4.90;;
6955;SDS011;50345;51.136;16.886;2023-04-24T10:38:51;5.10;;;4.70;;
6955;SDS011;50345;51.136;16.886;2023-04-24T10:41:18;5.88;;;5.35;;
6955;SDS011;50345;51.136;16.886;2023-04-24T10:43:47;5.82;;;5.30;;
6955;SDS011;50345;51.136;16.886;2023-04-24T10:46:19;5.95;;;5.45;;
6955;SDS011;50345;51.136;16.886;2023-04-24T10:48:53;6.05;;;5.55;;
6955;SDS011;50345;51.136;16.886;2023-04-24T10:51:21;6.05;;;5.55;;
6955;SDS011;50345;51.136;16.886;2023-04-24T10:54:21;7.78;;;5.90;;
6955;SDS011;50345;51.136;16.886;2023-04-24T10:56:53;6.35;;;5.75;;
6955;SDS011;50345;51.136;16.886;2023-04-24T10:59:45;7.00;;;6.40;;
6955;SDS011;50345;51.136;16.886;2023-04-24T11:02:16;7.13;;;6.23;;
6955;SDS011;50345;51.136;16.886;2023-04-24T11:04:42;6.67;;;6.03;;
6955;SDS011;50345;51.136;16.886;2023-04-24T11:07:08;7.40;;;6.80;;
6955;SDS011;50345;51.136;16.886;2023-04-24T11:09:35;5.90;;;5.03;;
6955;SDS011;50345;51.136;16.886;2023-04-24T11:12:05;6.27;;;5.67;;
6955;SDS011;50345;51.136;16.886;2023-04-24T11:17:33;4.82;;;4.43;;
6955;SDS011;50345;51.136;16.886;2023-04-24T11:20:05;5.50;;;5.00;;
6955;SDS011;50345;51.136;16.886;2023-04-24T11:22:34;4.37;;;3.97;;
6955;SDS011;50345;51.136;16.886;2023-04-24T11:25:01;4.70;;;4.37;;
6955;SDS011;50345;51.136;16.886;2023-04-24T11:27:31;6.85;;;4.65;;
6955;SDS011;50345;51.136;16.886;2023-04-24T11:30:04;6.68;;;5.57;;
6955;SDS011;50345;51.136;16.886;2023-04-24T11:32:35;5.78;;;5.03;;
6955;SDS011;50345;51.136;16.886;2023-04-24T11:35:20;6.63;;;6.03;;
6955;SDS011;50345;51.136;16.886;2023-04-24T11:37:51;10.25;;;7.22;;
6955;SDS011;50345;51.136;16.886;2023-04-24T11:40:18;6.82;;;6.25;;
6955;SDS011;50345;51.136;16.886;2023-04-24T11:42:48;6.80;;;6.30;;
6955;SDS011;50345;51.136;16.886;2023-04-24T11:45:16;8.10;;;7.40;;
6955;SDS011;50345;51.136;16.886;2023-04-24T11:47:43;7.70;;;7.00;;
6955;SDS011;50345;51.136;16.886;2023-04-24T11:50:14;8.80;;;7.88;;
6955;SDS011;50345;51.136;16.886;2023-04-24T11:52:41;8.80;;;7.70;;
6955;SDS011;50345;51.136;16.886;2023-04-24T11:55:29;5.90;;;5.45;;
6955;SDS011;50345;51.136;16.886;2023-04-24T11:57:55;4.70;;;4.30;;
6955;SDS011;50345;51.136;16.886;2023-04-24T12:00:26;5.03;;;4.63;;
6955;SDS011;50345;51.136;16.886;2023-04-24T12:03:03;5.07;;;4.23;;
6955;SDS011;50345;51.136;16.886;2023-04-24T12:05:33;4.20;;;3.67;;
6955;SDS011;50345;51.136;16.886;2023-04-24T12:07:59;6.00;;;4.43;;
6955;SDS011;50345;51.136;16.886;2023-04-24T12:10:25;5.30;;;4.90;;
6955;SDS011;50345;51.136;16.886;2023-04-24T12:12:53;4.60;;;4.30;;
6955;SDS011;50345;51.136;16.886;2023-04-24T12:15:20;5.00;;;4.60;;
6955;SDS011;50345;51.136;16.886;2023-04-24T12:17:46;6.20;;;4.47;;
6955;SDS011;50345;51.136;16.886;2023-04-24T12:20:13;4.33;;;3.93;;
6955;SDS011;50345;51.136;16.886;2023-04-24T12:22:55;4.20;;;3.77;;
6955;SDS011;50345;51.136;16.886;2023-04-24T12:25:23;4.40;;;4.10;;
6955;SDS011;50345;51.136;16.886;2023-04-24T12:30:30;5.03;;;4.63;;
6955;SDS011;50345;51.136;16.886;2023-04-24T12:33:06;7.38;;;6.78;;
6955;SDS011;50345;51.136;16.886;2023-04-24T12:35:32;5.13;;;4.53;;
6955;SDS011;50345;51.136;16.886;2023-04-24T12:38:05;4.47;;;3.22;;
6955;SDS011;50345;51.136;16.886;2023-04-24T12:40:32;2.13;;;1.77;;
6955;SDS011;50345;51.136;16.886;2023-04-24T12:42:58;2.03;;;1.83;;
6955;SDS011;50345;51.136;16.886;2023-04-24T12:45:24;2.47;;;2.20;;
6955;SDS011;50345;51.136;16.886;2023-04-24T12:47:50;3.95;;;2.75;;
6955;SDS011;50345;51.136;16.886;2023-04-24T12:50:16;2.50;;;1.87;;
6955;SDS011;50345;51.136;16.886;2023-04-24T12:52:42;1.60;;;1.50;;
6955;SDS011;50345;51.136;16.886;2023-04-24T12:55:09;2.40;;;2.20;;
6955;SDS011;50345;51.136;16.886;2023-04-24T12:57:36;1.53;;;1.40;;
6955;SDS011;50345;51.136;16.886;2023-04-24T13:00:02;1.58;;;1.48;;
6955;SDS011;50345;51.136;16.886;2023-04-24T13:02:29;1.92;;;1.83;;
6955;SDS011;50345;51.136;16.886;2023-04-24T13:04:56;2.17;;;1.98;;
6955;SDS011;50345;51.136;16.886;2023-04-24T13:07:22;2.28;;;2.08;;
6955;SDS011;50345;51.136;16.886;2023-04-24T13:09:48;2.10;;;1.90;;
6955;SDS011;50345;51.136;16.886;2023-04-24T13:12:15;2.45;;;1.90;;
6955;SDS011;50345;51.136;16.886;2023-04-24T13:14:41;1.43;;;1.33;;
6955;SDS011;50345;51.136;16.886;2023-04-24T13:17:06;1.97;;;1.70;;
6955;SDS011;50345;51.136;16.886;2023-04-24T13:19:37;5.15;;;3.38;;
6955;SDS011;50345;51.136;16.886;2023-04-24T13:22:03;6.30;;;2.05;;
6955;SDS011;50345;51.136;16.886;2023-04-24T13:24:30;2.03;;;1.83;;
6955;SDS011;50345;51.136;16.886;2023-04-24T13:26:56;2.77;;;1.77;;
6955;SDS011;50345;51.136;16.886;2023-04-24T13:29:22;10.30;;;9.07;;
6955;SDS011;50345;51.136;16.886;2023-04-24T13:31:49;2.37;;;2.17;;
6955;SDS011;50345;51.136;16.886;2023-04-24T13:34:16;2.33;;;2.05;;
6955;SDS011;50345;51.136;16.886;2023-04-24T13:36:42;3.05;;;2.00;;
6955;SDS011;50345;51.136;16.886;2023-04-24T13:39:07;2.20;;;1.73;;
6955;SDS011;50345;51.136;16.886;2023-04-24T13:41:33;3.03;;;1.90;;
6955;SDS011;50345;51.136;16.886;2023-04-24T13:44:00;3.20;;;1.80;;
6955;SDS011;50345;51.136;16.886;2023-04-24T13:46:26;2.00;;;1.90;;
6955;SDS011;50345;51.136;16.886;2023-04-24T13:48:51;3.20;;;2.13;;
6955;SDS011;50345;51.136;16.886;2023-04-24T13:51:17;2.93;;;2.30;;
6955;SDS011;50345;51.136;16.886;2023-04-24T13:53:43;2.27;;;1.90;;
6955;SDS011;50345;51.136;16.886;2023-04-24T13:56:08;1.87;;;1.77;;
6955;SDS011;50345;51.136;16.886;2023-04-24T13:58:34;2.97;;;2.57;;
6955;SDS011;50345;51.136;16.886;2023-04-24T14:01:02;1.80;;;1.70;;
6955;SDS011;50345;51.136;16.886;2023-04-24T14:03:28;2.30;;;2.10;;
6955;SDS011;50345;51.136;16.886;2023-04-24T14:05:54;2.70;;;2.50;;
6955;SDS011;50345;51.136;16.886;2023-04-24T14:08:19;2.67;;;2.43;;
6955;SDS011;50345;51.136;16.886;2023-04-24T14:10:45;2.77;;;2.47;;
6955;SDS011;50345;51.136;16.886;2023-04-24T14:13:10;6.20;;;3.00;;
6955;SDS011;50345;51.136;16.886;2023-04-24T14:15:36;5.80;;;3.20;;
6955;SDS011;50345;51.136;16.886;2023-04-24T14:18:02;2.83;;;2.63;;
6955;SDS011;50345;51.136;16.886;2023-04-24T14:20:28;8.18;;;5.38;;
6955;SDS011;50345;51.136;16.886;2023-04-24T14:22:54;5.27;;;4.87;;
6955;SDS011;50345;51.136;16.886;2023-04-24T14:25:19;4.13;;;3.70;;
6955;SDS011;50345;51.136;16.886;2023-04-24T14:27:47;4.63;;;4.13;;
6955;SDS011;50345;51.136;16.886;2023-04-24T14:30:12;5.23;;;4.20;;
6955;SDS011;50345;51.136;16.886;2023-04-24T14:32:38;5.80;;;4.82;;
6955;SDS011;50345;51.136;16.886;2023-04-24T14:35:05;5.57;;;5.17;;
6955;SDS011;50345;51.136;16.886;2023-04-24T14:37:31;5.28;;;4.88;;
6955;SDS011;50345;51.136;16.886;2023-04-24T14:39:57;6.00;;;5.40;;
6955;SDS011;50345;51.136;16.886;2023-04-24T14:42:23;6.03;;;5.00;;